createdAt,value
2023-05-09T00:00:13.706Z,98315.56
2023-05-09T00:01:47.175Z,98304.19
2023-05-09T00:03:18.878Z,98304.63
2023-05-09T00:04:51.582Z,98308.00
2023-05-09T00:06:23.293Z,98306.25
2023-05-09T00:07:54.921Z,98310.75
2023-05-09T00:09:26.597Z,98306.78
2023-05-09T00:10:58.259Z,98310.34
2023-05-09T00:12:29.912Z,98314.69
2023-05-09T00:14:02.480Z,98312.13
2023-05-09T00:15:34.175Z,98308.03
2023-05-09T00:17:05.780Z,98311.44
2023-05-09T00:18:37.944Z,98302.94
2023-05-09T00:20:12.316Z,98308.97
2023-05-09T00:21:44.350Z,98301.22
2023-05-09T00:23:16.748Z,98296.13
2023-05-09T00:24:48.943Z,98299.31
2023-05-09T00:26:21.750Z,98300.19
2023-05-09T00:27:53.405Z,98304.16
2023-05-09T00:29:24.988Z,98305.59
2023-05-09T00:30:57.105Z,98306.28
2023-05-09T00:32:29.253Z,98302.09
2023-05-09T00:34:01.001Z,98302.94
2023-05-09T00:35:32.979Z,98298.03
2023-05-09T00:37:04.594Z,98305.94
2023-05-09T00:38:36.344Z,98302.34
2023-05-09T00:40:09.232Z,98304.78
2023-05-09T00:41:41.056Z,98301.16
2023-05-09T00:43:12.734Z,98301.97
2023-05-09T00:44:44.320Z,98299.31
2023-05-09T00:46:15.946Z,98293.44
2023-05-09T00:47:47.897Z,98290.00
2023-05-09T00:49:20.057Z,98284.78
2023-05-09T00:50:53.070Z,98281.97
2023-05-09T00:52:26.022Z,98277.22
2023-05-09T00:53:58.513Z,98277.88
2023-05-09T00:55:30.262Z,98271.69
2023-05-09T00:57:01.814Z,98273.31
2023-05-09T00:58:33.412Z,98283.13
2023-05-09T01:00:06.204Z,98281.50
2023-05-09T01:01:37.889Z,98278.69
2023-05-09T01:03:10.103Z,98278.03
2023-05-09T01:04:42.182Z,98276.66
2023-05-09T01:06:16.921Z,98275.47
2023-05-09T01:08:10.467Z,98281.22
2023-05-09T01:10:01.714Z,98278.00
2023-05-09T01:11:42.547Z,98281.97
2023-05-09T01:13:24.211Z,98274.84
2023-05-09T01:15:17.309Z,98274.00
2023-05-09T01:17:01.881Z,98269.41
2023-05-09T01:19:12.379Z,98274.31
2023-05-09T01:20:49.876Z,98270.84
2023-05-09T01:22:26.780Z,98274.69
2023-05-09T01:24:22.686Z,98266.47
2023-05-09T01:26:01.967Z,98268.28
2023-05-09T01:27:48.536Z,98267.19
2023-05-09T01:29:44.667Z,98262.91
2023-05-09T01:31:17.364Z,98264.53
2023-05-09T01:32:52.151Z,98257.81
2023-05-09T01:34:28.599Z,98260.44
2023-05-09T01:36:09.801Z,98259.28
2023-05-09T01:37:44.650Z,98250.56
2023-05-09T01:39:18.068Z,98255.88
2023-05-09T01:40:54.392Z,98252.97
2023-05-09T01:42:30.971Z,98251.16
2023-05-09T01:44:05.201Z,98250.34
2023-05-09T01:45:39.002Z,98253.78
2023-05-09T01:47:11.744Z,98252.44
2023-05-09T01:48:45.057Z,98253.53
2023-05-09T01:50:18.678Z,98254.72
2023-05-09T01:51:51.244Z,98256.38
2023-05-09T01:53:24.695Z,98254.34
2023-05-09T01:54:57.794Z,98257.31
2023-05-09T01:56:31.778Z,98253.66
2023-05-09T01:58:06.194Z,98251.72
2023-05-09T01:59:41.991Z,98251.38
2023-05-09T02:01:14.838Z,98257.81
2023-05-09T02:02:46.777Z,98251.28
2023-05-09T02:04:20.882Z,98254.25
2023-05-09T02:05:54.612Z,98254.72
2023-05-09T02:07:29.330Z,98256.38
2023-05-09T02:09:02.088Z,98250.72
2023-05-09T02:10:35.356Z,98255.28
2023-05-09T02:12:07.147Z,98253.31
2023-05-09T02:13:39.162Z,98261.09
2023-05-09T02:15:11.185Z,98258.47
2023-05-09T02:16:45.806Z,98258.91
2023-05-09T02:18:17.415Z,98254.47
2023-05-09T02:19:49.001Z,98258.91
2023-05-09T02:21:20.632Z,98249.75
2023-05-09T02:22:52.351Z,98252.72
2023-05-09T02:24:24.634Z,98252.03
2023-05-09T02:25:56.624Z,98250.94
2023-05-09T02:27:28.500Z,98247.63
2023-05-09T02:29:02.836Z,98248.63
2023-05-09T02:30:41.994Z,98246.28
2023-05-09T02:32:20.782Z,98240.03
2023-05-09T02:33:53.445Z,98235.19
2023-05-09T02:35:27.402Z,98236.09
2023-05-09T02:36:59.494Z,98229.22
2023-05-09T02:38:32.633Z,98235.97
2023-05-09T02:40:07.656Z,98237.28
2023-05-09T02:41:39.406Z,98241.06
2023-05-09T02:43:11.181Z,98242.22
2023-05-09T02:44:42.762Z,98243.06
2023-05-09T02:46:14.410Z,98239.38
2023-05-09T02:47:46.093Z,98230.59
2023-05-09T02:49:31.447Z,98235.97
2023-05-09T02:51:04.853Z,98236.13
2023-05-09T02:52:36.504Z,98230.84
2023-05-09T02:54:08.936Z,98226.91
2023-05-09T02:55:40.527Z,98223.50
2023-05-09T02:57:12.188Z,98222.50
2023-05-09T02:58:44.297Z,98215.03
2023-05-09T03:00:18.005Z,98212.22
2023-05-09T03:01:49.681Z,98209.84
2023-05-09T03:03:23.354Z,98200.97
2023-05-09T03:04:56.567Z,98206.59
2023-05-09T03:06:28.250Z,98210.69
2023-05-09T03:07:59.866Z,98209.41
2023-05-09T03:09:31.618Z,98216.59
2023-05-09T03:11:03.252Z,98215.13
2023-05-09T03:12:35.300Z,98211.22
2023-05-09T03:14:08.456Z,98204.22
2023-05-09T03:15:40.085Z,98206.56
2023-05-09T03:17:12.946Z,98208.72
2023-05-09T03:18:44.656Z,98204.66
2023-05-09T03:20:16.390Z,98205.03
2023-05-09T03:21:48.079Z,98212.38
2023-05-09T03:23:20.011Z,98212.38
2023-05-09T03:24:51.711Z,98208.44
2023-05-09T03:26:23.473Z,98202.34
2023-05-09T03:27:55.046Z,98199.69
2023-05-09T03:29:27.647Z,98205.50
2023-05-09T03:30:59.255Z,98208.31
2023-05-09T03:32:32.420Z,98206.31
2023-05-09T03:34:04.010Z,98205.63
2023-05-09T03:35:35.652Z,98192.63
2023-05-09T03:37:07.473Z,98199.81
2023-05-09T03:38:43.410Z,98194.88
2023-05-09T03:40:15.333Z,98196.91
2023-05-09T03:41:59.130Z,98191.63
2023-05-09T03:43:30.813Z,98196.91
2023-05-09T03:45:02.384Z,98203.59
2023-05-09T03:46:34.107Z,98196.81
2023-05-09T03:48:08.560Z,98192.91
2023-05-09T03:49:42.808Z,98190.91
2023-05-09T03:51:16.431Z,98193.97
2023-05-09T03:52:50.554Z,98188.69
2023-05-09T03:54:22.356Z,98191.41
2023-05-09T03:55:55.767Z,98192.75
2023-05-09T03:57:27.980Z,98191.94
2023-05-09T03:59:01.585Z,98192.22
2023-05-09T04:00:33.636Z,98185.03
2023-05-09T04:02:13.123Z,98189.31
2023-05-09T04:03:45.053Z,98192.94
2023-05-09T04:05:19.353Z,98199.13
2023-05-09T04:06:51.750Z,98185.69
2023-05-09T04:08:23.692Z,98185.59
2023-05-09T04:09:58.587Z,98184.47
2023-05-09T04:11:30.619Z,98190.47
2023-05-09T04:13:03.413Z,98187.56
2023-05-09T04:14:35.506Z,98195.63
2023-05-09T04:16:07.303Z,98196.44
2023-05-09T04:17:39.547Z,98195.28
2023-05-09T04:19:11.237Z,98190.38
2023-05-09T04:20:43.191Z,98186.91
2023-05-09T04:22:15.236Z,98186.41
2023-05-09T04:23:46.917Z,98193.09
2023-05-09T04:25:20.207Z,98184.88
2023-05-09T04:26:52.756Z,98183.16
2023-05-09T04:28:27.312Z,98190.72
2023-05-09T04:30:00.291Z,98190.34
2023-05-09T04:31:32.039Z,98189.34
2023-05-09T04:33:04.452Z,98195.59
2023-05-09T04:34:36.056Z,98192.53
2023-05-09T04:36:14.012Z,98198.59
2023-05-09T04:37:45.691Z,98194.03
2023-05-09T04:39:17.667Z,98193.50
2023-05-09T04:40:58.610Z,98192.41
2023-05-09T04:42:33.386Z,98195.88
2023-05-09T04:44:05.446Z,98188.31
2023-05-09T04:45:37.104Z,98191.06
2023-05-09T04:47:08.750Z,98184.25
2023-05-09T04:48:40.609Z,98188.53
2023-05-09T04:50:12.400Z,98175.19
2023-05-09T04:51:44.018Z,98181.72
2023-05-09T04:53:15.632Z,98176.53
2023-05-09T04:54:47.400Z,98180.13
2023-05-09T04:56:22.638Z,98182.03
2023-05-09T04:57:54.789Z,98184.44
2023-05-09T04:59:26.413Z,98179.81
2023-05-09T05:00:58.109Z,98180.53
2023-05-09T05:02:30.921Z,98191.53
2023-05-09T05:04:02.560Z,98182.25
2023-05-09T05:05:37.605Z,98175.72
2023-05-09T05:07:10.191Z,98180.28
2023-05-09T05:08:41.872Z,98181.72
2023-05-09T05:10:13.911Z,98180.78
2023-05-09T05:11:58.739Z,98172.97
2023-05-09T05:13:32.926Z,98180.72
2023-05-09T05:15:06.824Z,98181.81
2023-05-09T05:16:39.185Z,98173.91
2023-05-09T05:18:11.208Z,98175.41
2023-05-09T05:19:43.505Z,98176.44
2023-05-09T05:21:16.407Z,98170.84
2023-05-09T05:22:48.901Z,98177.31
2023-05-09T05:24:20.770Z,98172.78
2023-05-09T05:25:52.786Z,98174.09
2023-05-09T05:27:24.586Z,98172.78
2023-05-09T05:28:57.217Z,98172.34
2023-05-09T05:30:32.124Z,98166.34
2023-05-09T05:32:05.971Z,98167.91
2023-05-09T05:33:37.727Z,98175.63
2023-05-09T05:35:13.410Z,98174.06
2023-05-09T05:36:45.664Z,98181.41
2023-05-09T05:38:17.362Z,98186.75
2023-05-09T05:39:53.246Z,98179.13
2023-05-09T05:41:24.946Z,98181.78
2023-05-09T05:42:57.093Z,98182.00
2023-05-09T05:44:29.357Z,98175.25
2023-05-09T05:46:01.235Z,98177.06
2023-05-09T05:47:35.677Z,98176.00
2023-05-09T05:49:08.042Z,98171.97
2023-05-09T05:50:39.902Z,98174.44
2023-05-09T05:52:11.548Z,98174.06
2023-05-09T05:53:43.215Z,98180.03
2023-05-09T05:55:15.066Z,98175.50
2023-05-09T05:56:47.026Z,98180.78
2023-05-09T05:58:18.670Z,98183.41
2023-05-09T05:59:51.225Z,98171.88
2023-05-09T06:01:22.865Z,98174.94
2023-05-09T06:02:55.160Z,98168.03
2023-05-09T06:04:32.539Z,98172.13
2023-05-09T06:06:04.680Z,98171.19
2023-05-09T06:07:36.800Z,98164.06
2023-05-09T06:09:08.672Z,98166.41
2023-05-09T06:10:40.788Z,98162.84
2023-05-09T06:12:16.426Z,98155.09
2023-05-09T06:13:47.978Z,98169.44
2023-05-09T06:15:19.543Z,98149.31
2023-05-09T06:16:54.345Z,98149.63
2023-05-09T06:18:26.178Z,98154.00
2023-05-09T06:19:58.822Z,98145.88
2023-05-09T06:21:30.536Z,98144.28
2023-05-09T06:23:02.142Z,98141.81
2023-05-09T06:24:36.299Z,98142.19
2023-05-09T06:26:08.500Z,98140.06
2023-05-09T06:27:40.745Z,98141.19
2023-05-09T06:29:14.255Z,98141.66
2023-05-09T06:30:45.978Z,98138.97
2023-05-09T06:32:18.772Z,98145.44
2023-05-09T06:33:50.946Z,98148.75
2023-05-09T06:35:23.044Z,98146.06
2023-05-09T06:36:54.926Z,98144.00
2023-05-09T06:38:26.942Z,98143.81
2023-05-09T06:39:58.768Z,98146.09
2023-05-09T06:41:30.988Z,98149.28
2023-05-09T06:43:02.782Z,98142.13
2023-05-09T06:44:34.873Z,98133.66
2023-05-09T06:46:07.444Z,98131.63
2023-05-09T06:47:39.349Z,98132.97
2023-05-09T06:49:11.100Z,98135.97
2023-05-09T06:50:42.769Z,98134.69
2023-05-09T06:52:15.783Z,98137.13
2023-05-09T06:53:48.017Z,98139.19
2023-05-09T06:55:19.688Z,98133.53
2023-05-09T06:56:51.314Z,98135.34
2023-05-09T06:58:23.265Z,98124.94
2023-05-09T06:59:54.827Z,98121.16
2023-05-09T07:01:27.035Z,98119.50
2023-05-09T07:02:58.821Z,98115.41
2023-05-09T07:04:30.519Z,98114.41
2023-05-09T07:06:02.034Z,98116.34
2023-05-09T07:07:33.559Z,98112.47
2023-05-09T07:09:05.071Z,98103.09
2023-05-09T07:10:36.760Z,98101.75
2023-05-09T07:12:08.541Z,98099.16
2023-05-09T07:13:40.127Z,98102.94
2023-05-09T07:15:11.977Z,98090.56
2023-05-09T07:16:43.768Z,98096.03
2023-05-09T07:18:15.402Z,98090.88
2023-05-09T07:19:46.963Z,98095.13
2023-05-09T07:21:18.516Z,98092.41
2023-05-09T07:22:50.149Z,98094.75
2023-05-09T07:24:21.720Z,98093.50
2023-05-09T07:25:59.595Z,98098.47
2023-05-09T07:27:31.171Z,98091.09
2023-05-09T07:29:02.965Z,98088.00
2023-05-09T07:30:34.570Z,98088.63
2023-05-09T07:32:06.284Z,98079.88
2023-05-09T07:33:38.164Z,98078.84
2023-05-09T07:35:09.859Z,98066.88
2023-05-09T07:36:41.413Z,98065.25
2023-05-09T07:38:13.279Z,98064.00
2023-05-09T07:39:44.945Z,98057.28
2023-05-09T07:41:16.735Z,98056.63
2023-05-09T07:42:50.011Z,98055.47
2023-05-09T07:44:22.335Z,98057.69
2023-05-09T07:45:54.075Z,98051.72
2023-05-09T07:47:25.986Z,98054.75
2023-05-09T07:48:57.607Z,98048.50
2023-05-09T07:50:29.658Z,98047.06
2023-05-09T07:52:02.065Z,98042.66
2023-05-09T07:53:33.911Z,98041.13
2023-05-09T07:55:06.868Z,98041.66
2023-05-09T07:56:38.590Z,98045.53
2023-05-09T07:58:10.351Z,98042.63
2023-05-09T07:59:42.486Z,98042.16
2023-05-09T08:01:14.149Z,98030.88
2023-05-09T08:02:45.871Z,98029.09
2023-05-09T08:04:17.585Z,98021.69
2023-05-09T08:05:49.516Z,98027.16
2023-05-09T08:07:21.224Z,98024.41
2023-05-09T08:08:52.826Z,98010.06
2023-05-09T08:10:24.983Z,98008.81
2023-05-09T08:11:56.577Z,98007.41
2023-05-09T08:13:28.282Z,98005.34
2023-05-09T08:14:59.872Z,98008.00
2023-05-09T08:16:31.538Z,98003.03
2023-05-09T08:18:03.255Z,97999.94
2023-05-09T08:19:34.880Z,98000.19
2023-05-09T08:21:06.730Z,97993.72
2023-05-09T08:22:39.235Z,97997.47
2023-05-09T08:24:10.787Z,97990.38
2023-05-09T08:25:43.093Z,97991.88
2023-05-09T08:27:15.483Z,97990.16
2023-05-09T08:28:47.109Z,97989.06
2023-05-09T08:30:18.836Z,97982.50
2023-05-09T08:31:51.277Z,97985.06
2023-05-09T08:33:23.527Z,97979.91
2023-05-09T08:34:55.196Z,97978.13
2023-05-09T08:36:26.766Z,97978.59
2023-05-09T08:37:58.346Z,97981.53
2023-05-09T08:39:30.704Z,97977.41
2023-05-09T08:41:02.922Z,97977.97
2023-05-09T08:42:37.424Z,97970.25
2023-05-09T08:44:09.268Z,97977.28
2023-05-09T08:45:52.355Z,97984.09
2023-05-09T08:47:24.835Z,97976.94
2023-05-09T08:48:57.349Z,97964.38
2023-05-09T08:50:29.201Z,97973.41
2023-05-09T08:52:01.529Z,97967.47
2023-05-09T08:53:34.081Z,97968.47
2023-05-09T08:55:06.307Z,97966.44
2023-05-09T08:56:38.157Z,97964.84
2023-05-09T08:58:09.764Z,97968.03
2023-05-09T08:59:42.468Z,97967.75
2023-05-09T09:01:14.457Z,97968.72
2023-05-09T09:02:46.595Z,97967.03
2023-05-09T09:04:18.288Z,97957.69
2023-05-09T09:05:52.772Z,97960.34
2023-05-09T09:07:27.669Z,97959.59
2023-05-09T09:09:01.039Z,97954.84
2023-05-09T09:10:33.529Z,97949.19
2023-05-09T09:12:09.859Z,97956.22
2023-05-09T09:13:43.709Z,97948.56
2023-05-09T09:15:20.133Z,97950.50
2023-05-09T09:16:55.182Z,97947.03
2023-05-09T09:18:30.536Z,97952.94
2023-05-09T09:20:05.667Z,97946.66
2023-05-09T09:21:38.611Z,97944.19
2023-05-09T09:23:13.087Z,97943.78
2023-05-09T09:24:45.288Z,97939.63
2023-05-09T09:26:16.966Z,97942.16
2023-05-09T09:27:48.567Z,97938.06
2023-05-09T09:29:21.070Z,97934.59
2023-05-09T09:30:52.732Z,97930.84
2023-05-09T09:32:33.642Z,97925.06
2023-05-09T09:34:05.241Z,97926.84
2023-05-09T09:35:40.369Z,97925.31
2023-05-09T09:37:23.212Z,97923.44
2023-05-09T09:39:02.358Z,97912.75
2023-05-09T09:40:33.979Z,97915.06
2023-05-09T09:42:12.192Z,97911.16
2023-05-09T09:43:46.769Z,97910.56
2023-05-09T09:45:25.284Z,97906.47
2023-05-09T09:46:57.057Z,97899.94
2023-05-09T09:48:34.012Z,97907.78
2023-05-09T09:50:13.152Z,97903.16
2023-05-09T09:51:45.396Z,97897.03
2023-05-09T09:53:20.301Z,97890.50
2023-05-09T09:54:56.564Z,97890.00
2023-05-09T09:56:46.162Z,97884.47
2023-05-09T09:58:25.158Z,97881.53
2023-05-09T10:00:00.836Z,97873.59
2023-05-09T10:01:32.469Z,97874.22
2023-05-09T10:03:04.313Z,97863.13
2023-05-09T10:04:41.799Z,97870.19
2023-05-09T10:06:15.217Z,97862.44
2023-05-09T10:07:50.400Z,97869.97
2023-05-09T10:09:23.771Z,97867.03
2023-05-09T10:10:55.524Z,97858.50
2023-05-09T10:12:27.396Z,97852.69
2023-05-09T10:13:59.020Z,97856.50
2023-05-09T10:15:41.392Z,97852.94
2023-05-09T10:17:19.853Z,97850.78
2023-05-09T10:18:52.703Z,97840.78
2023-05-09T10:20:25.522Z,97839.63
2023-05-09T10:22:05.584Z,97845.19
2023-05-09T10:23:38.386Z,97833.50
2023-05-09T10:25:20.609Z,97833.63
2023-05-09T10:26:56.153Z,97834.44
2023-05-09T10:28:31.797Z,97830.16
2023-05-09T10:30:15.515Z,97827.69
2023-05-09T10:31:48.746Z,97832.91
2023-05-09T10:33:27.803Z,97826.06
2023-05-09T10:35:05.156Z,97817.88
2023-05-09T10:36:37.616Z,97819.81
2023-05-09T10:38:12.441Z,97811.38
2023-05-09T10:39:44.283Z,97807.50
2023-05-09T10:41:21.865Z,97802.09
2023-05-09T10:42:53.901Z,97801.59
2023-05-09T10:44:27.071Z,97802.84
2023-05-09T10:45:59.192Z,97797.09
2023-05-09T10:47:33.223Z,97797.22
2023-05-09T10:49:05.112Z,97794.78
2023-05-09T10:50:40.248Z,97797.97
2023-05-09T10:52:12.397Z,97790.66
2023-05-09T10:53:44.198Z,97786.34
2023-05-09T10:55:16.111Z,97785.53
2023-05-09T10:56:47.793Z,97781.47
2023-05-09T10:58:29.893Z,97776.22
2023-05-09T11:00:01.562Z,97779.09
2023-05-09T11:01:35.379Z,97771.75
2023-05-09T11:03:10.545Z,97763.84
2023-05-09T11:04:42.337Z,97771.59
2023-05-09T11:06:40.835Z,97764.28
2023-05-09T11:08:26.723Z,97759.13
2023-05-09T11:10:09.192Z,97759.34
2023-05-09T11:11:51.505Z,97759.47
2023-05-09T11:13:25.694Z,97750.66
2023-05-09T11:15:06.348Z,97753.16
2023-05-09T11:16:57.763Z,97740.91
2023-05-09T11:18:30.732Z,97748.16
2023-05-09T11:20:08.781Z,97740.41
2023-05-09T11:22:00.885Z,97734.09
2023-05-09T11:23:33.021Z,97735.75
2023-05-09T11:25:05.813Z,97739.00
2023-05-09T11:26:37.458Z,97729.78
2023-05-09T11:28:09.275Z,97732.06
2023-05-09T11:29:46.515Z,97737.84
2023-05-09T11:31:19.050Z,97736.84
2023-05-09T11:32:51.798Z,97729.28
2023-05-09T11:34:24.109Z,97731.38
2023-05-09T11:36:29.556Z,97727.09
2023-05-09T11:38:02.059Z,97721.13
2023-05-09T11:39:33.639Z,97722.53
2023-05-09T11:41:05.955Z,97726.25
2023-05-09T11:42:43.647Z,97723.22
2023-05-09T11:44:17.072Z,97723.38
2023-05-09T11:45:49.023Z,97711.09
2023-05-09T11:47:21.785Z,97711.72
2023-05-09T11:48:53.744Z,97703.69
2023-05-09T11:50:25.625Z,97711.75
2023-05-09T11:51:59.740Z,97705.38
2023-05-09T11:53:32.365Z,97705.47
2023-05-09T11:55:08.960Z,97694.53
2023-05-09T11:56:42.038Z,97698.81
2023-05-09T11:58:13.890Z,97688.63
2023-05-09T11:59:46.454Z,97688.03
2023-05-09T12:01:19.337Z,97691.72
2023-05-09T12:02:53.434Z,97686.41
2023-05-09T12:04:25.421Z,97679.34
2023-05-09T12:05:57.156Z,97684.22
2023-05-09T12:07:29.009Z,97669.41
2023-05-09T12:09:02.285Z,97667.56
2023-05-09T12:10:40.946Z,97660.53
2023-05-09T12:12:14.535Z,97662.97
2023-05-09T12:13:49.121Z,97661.13
2023-05-09T12:15:21.793Z,97665.25
2023-05-09T12:16:53.750Z,97646.59
2023-05-09T12:18:25.334Z,97649.41
2023-05-09T12:19:59.899Z,97646.50
2023-05-09T12:21:31.595Z,97645.22
2023-05-09T12:23:03.485Z,97642.50
2023-05-09T12:24:36.874Z,97640.75
2023-05-09T12:26:08.598Z,97642.63
2023-05-09T12:27:41.758Z,97639.84
2023-05-09T12:29:13.716Z,97630.22
2023-05-09T12:30:45.707Z,97625.34
2023-05-09T12:32:18.601Z,97618.66
2023-05-09T12:33:50.391Z,97616.56
2023-05-09T12:35:23.543Z,97611.50
2023-05-09T12:36:55.137Z,97611.69
2023-05-09T12:38:27.078Z,97612.41
2023-05-09T12:40:12.604Z,97605.22
2023-05-09T12:41:57.385Z,97596.44
2023-05-09T12:43:34.065Z,97603.06
2023-05-09T12:45:08.743Z,97602.75
2023-05-09T12:46:40.467Z,97598.16
2023-05-09T12:48:13.641Z,97598.88
2023-05-09T12:49:50.004Z,97599.25
2023-05-09T12:51:22.493Z,97599.63
2023-05-09T12:53:02.655Z,97597.22
2023-05-09T12:54:35.398Z,97591.25
2023-05-09T12:56:34.157Z,97597.25
2023-05-09T12:58:05.804Z,97595.25
2023-05-09T12:59:37.461Z,97594.00
2023-05-09T13:01:09.531Z,97596.94
2023-05-09T13:02:42.176Z,97595.78
2023-05-09T13:04:14.028Z,97593.47
2023-05-09T13:05:54.512Z,97598.72
2023-05-09T13:07:26.359Z,97603.16
2023-05-09T13:09:02.793Z,97609.53
2023-05-09T13:10:34.719Z,97603.56
2023-05-09T13:12:09.981Z,97613.16
2023-05-09T13:13:42.495Z,97603.44
2023-05-09T13:15:19.940Z,97597.22
2023-05-09T13:16:51.743Z,97579.34
2023-05-09T13:18:24.446Z,97575.69
2023-05-09T13:19:56.561Z,97567.28
2023-05-09T13:21:28.159Z,97562.75
2023-05-09T13:22:59.926Z,97557.94
2023-05-09T13:24:31.612Z,97561.09
2023-05-09T13:26:03.619Z,97558.81
2023-05-09T13:27:35.792Z,97556.66
2023-05-09T13:29:07.878Z,97557.97
2023-05-09T13:30:39.740Z,97555.97
2023-05-09T13:32:11.436Z,97554.25
2023-05-09T13:33:42.997Z,97550.63
2023-05-09T13:35:15.346Z,97547.81
2023-05-09T13:36:46.901Z,97540.25
2023-05-09T13:38:18.545Z,97540.72
2023-05-09T13:39:50.227Z,97533.78
2023-05-09T13:41:23.934Z,97532.41
2023-05-09T13:42:55.902Z,97530.19
2023-05-09T13:44:28.926Z,97522.44
2023-05-09T13:46:00.810Z,97527.09
2023-05-09T13:47:32.718Z,97520.56
2023-05-09T13:49:04.495Z,97519.56
2023-05-09T13:50:36.261Z,97509.31
2023-05-09T13:52:09.011Z,97512.38
2023-05-09T13:53:40.860Z,97506.84
2023-05-09T13:55:12.522Z,97499.06
2023-05-09T13:56:44.289Z,97505.75
2023-05-09T13:58:16.056Z,97507.03
2023-05-09T13:59:47.698Z,97501.78
2023-05-09T14:01:19.443Z,97499.81
2023-05-09T14:02:51.436Z,97483.06
2023-05-09T14:04:23.160Z,97487.84
2023-05-09T14:05:54.760Z,97490.75
2023-05-09T14:07:26.522Z,97487.69
2023-05-09T14:08:58.200Z,97480.75
2023-05-09T14:10:29.803Z,97481.75
2023-05-09T14:12:01.596Z,97474.97
2023-05-09T14:13:33.300Z,97469.09
2023-05-09T14:15:07.102Z,97463.63
2023-05-09T14:16:38.869Z,97468.78
2023-05-09T14:18:11.441Z,97459.50
2023-05-09T14:19:44.083Z,97462.34
2023-05-09T14:21:15.684Z,97454.47
2023-05-09T14:22:48.216Z,97448.56
2023-05-09T14:24:19.781Z,97442.16
2023-05-09T14:25:51.768Z,97448.44
2023-05-09T14:27:24.115Z,97448.97
2023-05-09T14:28:55.756Z,97441.97
2023-05-09T14:30:27.981Z,97442.56
2023-05-09T14:32:00.118Z,97432.66
2023-05-09T14:33:32.829Z,97439.66
2023-05-09T14:35:04.777Z,97436.38
2023-05-09T14:36:37.438Z,97433.66
2023-05-09T14:38:09.878Z,97438.22
2023-05-09T14:39:42.567Z,97431.22
2023-05-09T14:41:15.254Z,97427.31
2023-05-09T14:42:47.605Z,97426.47
2023-05-09T14:44:19.757Z,97422.81
2023-05-09T14:45:51.736Z,97419.53
2023-05-09T14:47:23.315Z,97416.72
2023-05-09T14:48:57.429Z,97417.03
2023-05-09T14:50:29.545Z,97411.47
2023-05-09T14:52:01.241Z,97414.19
2023-05-09T14:53:35.854Z,97417.47
2023-05-09T14:55:08.239Z,97411.78
2023-05-09T14:56:40.339Z,97416.00
2023-05-09T14:58:13.904Z,97412.72
2023-05-09T14:59:45.664Z,97414.00
2023-05-09T15:01:17.325Z,97408.97
2023-05-09T15:02:49.635Z,97402.59
2023-05-09T15:04:21.460Z,97405.69
2023-05-09T15:05:53.397Z,97402.53
2023-05-09T15:07:25.003Z,97409.66
2023-05-09T15:08:56.750Z,97398.06
2023-05-09T15:10:28.492Z,97402.78
2023-05-09T15:12:00.259Z,97399.38
2023-05-09T15:13:32.412Z,97400.28
2023-05-09T15:15:15.327Z,97394.09
2023-05-09T15:16:47.477Z,97399.06
2023-05-09T15:18:20.169Z,97395.53
2023-05-09T15:19:52.178Z,97396.56
2023-05-09T15:21:24.849Z,97393.47
2023-05-09T15:22:56.687Z,97388.16
2023-05-09T15:24:28.431Z,97384.91
2023-05-09T15:26:00.379Z,97383.31
2023-05-09T15:27:32.147Z,97378.88
2023-05-09T15:29:03.891Z,97377.03
2023-05-09T15:30:38.342Z,97370.94
2023-05-09T15:32:10.251Z,97371.94
2023-05-09T15:33:42.037Z,97374.06
2023-05-09T15:35:14.114Z,97368.97
2023-05-09T15:36:46.279Z,97374.78
2023-05-09T15:38:19.349Z,97370.09
2023-05-09T15:39:51.313Z,97370.44
2023-05-09T15:41:23.935Z,97365.16
2023-05-09T15:42:56.036Z,97359.78
2023-05-09T15:44:27.920Z,97368.50
2023-05-09T15:45:59.664Z,97364.22
2023-05-09T15:47:31.447Z,97353.81
2023-05-09T15:49:03.322Z,97358.97
2023-05-09T15:50:35.090Z,97363.03
2023-05-09T15:52:07.976Z,97358.66
2023-05-09T15:53:39.965Z,97360.84
2023-05-09T15:55:13.078Z,97358.84
2023-05-09T15:56:44.933Z,97349.38
2023-05-09T15:58:17.337Z,97354.53
2023-05-09T15:59:49.277Z,97351.31
2023-05-09T16:01:21.277Z,97346.69
2023-05-09T16:02:53.180Z,97353.81
2023-05-09T16:04:24.871Z,97350.50
2023-05-09T16:05:57.658Z,97352.13
2023-05-09T16:07:31.106Z,97348.44
2023-05-09T16:09:04.716Z,97337.66
2023-05-09T16:10:36.671Z,97338.53
2023-05-09T16:12:09.350Z,97338.06
2023-05-09T16:13:41.082Z,97336.06
2023-05-09T16:15:12.880Z,97333.56
2023-05-09T16:16:44.738Z,97335.28
2023-05-09T16:18:16.563Z,97335.03
2023-05-09T16:19:48.435Z,97338.66
2023-05-09T16:21:21.805Z,97338.03
2023-05-09T16:22:53.731Z,97333.59
2023-05-09T16:24:25.695Z,97329.31
2023-05-09T16:25:57.569Z,97330.47
2023-05-09T16:27:29.513Z,97339.25
2023-05-09T16:29:01.421Z,97341.47
2023-05-09T16:30:33.169Z,97339.75
2023-05-09T16:32:05.247Z,97338.97
2023-05-09T16:33:37.177Z,97340.41
2023-05-09T16:35:09.245Z,97341.63
2023-05-09T16:36:41.377Z,97334.88
2023-05-09T16:38:13.732Z,97335.91
2023-05-09T16:39:46.189Z,97326.06
2023-05-09T16:41:17.916Z,97331.06
2023-05-09T16:42:49.685Z,97328.31
2023-05-09T16:44:21.897Z,97320.56
2023-05-09T16:45:53.652Z,97325.31
2023-05-09T16:47:25.702Z,97320.00
2023-05-09T16:48:58.181Z,97327.88
2023-05-09T16:50:30.079Z,97324.94
2023-05-09T16:52:01.710Z,97321.22
2023-05-09T16:53:33.432Z,97332.44
2023-05-09T16:55:06.018Z,97334.94
2023-05-09T16:56:37.980Z,97330.81
2023-05-09T16:58:09.981Z,97333.84
2023-05-09T16:59:41.950Z,97326.75
2023-05-09T17:01:13.728Z,97331.03
2023-05-09T17:02:45.663Z,97327.56
2023-05-09T17:04:17.418Z,97330.72
2023-05-09T17:05:49.202Z,97330.59
2023-05-09T17:07:21.115Z,97337.31
2023-05-09T17:08:53.420Z,97348.50
2023-05-09T17:10:26.493Z,97350.00
2023-05-09T17:11:58.933Z,97370.22
2023-05-09T17:13:31.265Z,97381.69
2023-05-09T17:15:03.433Z,97391.16
2023-05-09T17:16:37.344Z,97386.41
2023-05-09T17:18:09.870Z,97391.94
2023-05-09T17:19:41.752Z,97395.63
2023-05-09T17:21:16.999Z,97389.16
2023-05-09T17:22:48.695Z,97388.78
2023-05-09T17:24:20.361Z,97388.34
2023-05-09T17:25:52.310Z,97384.66
2023-05-09T17:27:24.299Z,97400.78
2023-05-09T17:28:56.068Z,97378.81
2023-05-09T17:30:27.858Z,97382.53
2023-05-09T17:32:02.473Z,97388.63
2023-05-09T17:33:34.390Z,97380.44
2023-05-09T17:35:06.812Z,97390.47
2023-05-09T17:36:38.498Z,97383.13
2023-05-09T17:38:10.100Z,97377.38
2023-05-09T17:39:42.649Z,97380.66
2023-05-09T17:41:14.430Z,97375.91
2023-05-09T17:42:46.088Z,97381.00
2023-05-09T17:44:18.963Z,97380.00
2023-05-09T17:45:52.412Z,97376.34
2023-05-09T17:47:24.151Z,97370.97
2023-05-09T17:48:56.635Z,97378.97
2023-05-09T17:50:28.605Z,97377.28
2023-05-09T17:52:00.472Z,97381.47
2023-05-09T17:53:32.432Z,97379.78
2023-05-09T17:55:04.454Z,97376.69
2023-05-09T17:56:36.531Z,97380.94
2023-05-09T17:58:08.524Z,97376.16
2023-05-09T17:59:41.473Z,97379.59
2023-05-09T18:01:13.528Z,97375.72
2023-05-09T18:02:45.588Z,97379.88
2023-05-09T18:04:17.282Z,97384.25
2023-05-09T18:05:49.007Z,97382.00
2023-05-09T18:07:21.000Z,97383.31
2023-05-09T18:08:52.765Z,97378.97
2023-05-09T18:10:24.422Z,97377.56
2023-05-09T18:11:57.921Z,97385.81
2023-05-09T18:13:29.781Z,97383.34
2023-05-09T18:15:02.211Z,97380.59
2023-05-09T18:16:34.735Z,97382.06